Time;durP1;ratioP1;P1;durP2;ratioP2;P2;SDS_P1;SDS_P2;PMS_P1;PMS_P2;Temp;Humidity;BMP_temperature;BMP_pressure;BME280_temperature;BME280_humidity;BME280_pressure;Samples;Min_cycle;Max_cycle;Signal;HPM_P1;HPM_P2
2021/04/11 00:00:17;;;;;;;6.60;4.93;;;11.70;99.90;;;;;;5048436;28;20457;-67
2021/04/11 00:02:43;;;;;;;4.50;4.00;;;11.70;99.90;;;;;;5048245;28;20469;-68
2021/04/11 00:05:10;;;;;;;6.50;4.67;;;11.70;99.90;;;;;;5032976;28;20559;-67
2021/04/11 00:07:35;;;;;;;8.90;4.57;;;11.70;99.90;;;;;;5050353;28;20222;-68
2021/04/11 00:10:02;;;;;;;5.77;4.23;;;11.70;99.90;;;;;;5024447;28;20443;-67
2021/04/11 00:12:28;;;;;;;5.97;4.57;;;11.70;99.90;;;;;;5031432;28;20695;-67
2021/04/11 00:14:53;;;;;;;5.10;4.37;;;11.70;99.90;;;;;;5022293;28;20501;-68
2021/04/11 00:17:19;;;;;;;3.97;3.13;;;11.70;99.90;;;;;;5015905;28;20223;-69
2021/04/11 00:19:45;;;;;;;7.17;4.40;;;11.70;99.90;;;;;;5024701;28;20598;-67
2021/04/11 00:22:11;;;;;;;5.17;4.20;;;11.70;99.90;;;;;;5028890;28;20215;-68
2021/04/11 00:24:36;;;;;;;5.57;4.10;;;11.70;99.90;;;;;;5025592;28;20616;-67
2021/04/11 00:27:02;;;;;;;6.27;4.47;;;11.70;99.90;;;;;;5043714;28;20250;-67
2021/04/11 00:29:28;;;;;;;6.77;4.60;;;11.60;99.90;;;;;;5049271;28;20224;-67
2021/04/11 00:31:53;;;;;;;9.00;4.70;;;11.70;99.90;;;;;;5016584;28;20216;-67
2021/04/11 00:34:19;;;;;;;4.37;3.57;;;11.70;99.90;;;;;;5031526;28;20742;-68
2021/04/11 00:36:45;;;;;;;5.23;4.23;;;11.60;99.90;;;;;;5023134;28;20227;-68
2021/04/11 00:39:10;;;;;;;6.33;4.40;;;11.60;99.90;;;;;;5019836;28;20220;-68
2021/04/11 00:41:46;;;;;;;5.40;4.50;;;11.60;99.90;;;;;;5015100;28;20220;-67
2021/04/11 00:44:12;;;;;;;4.10;3.70;;;11.60;99.90;;;;;;5012457;28;20242;-68
2021/04/11 00:46:51;;;;;;;5.20;4.10;;;11.50;99.90;;;;;;5030938;28;20962;-68
2021/04/11 00:49:19;;;;;;;3.97;3.57;;;11.60;99.90;;;;;;5047947;28;20465;-68
2021/04/11 00:51:45;;;;;;;5.10;3.97;;;11.60;99.90;;;;;;5030056;28;20461;-67
2021/04/11 00:54:10;;;;;;;4.40;3.70;;;11.50;99.90;;;;;;5042136;28;20466;-68
2021/04/11 00:56:38;;;;;;;5.50;4.27;;;11.50;99.90;;;;;;5030971;28;20571;-69
2021/04/11 00:59:08;;;;;;;4.77;4.37;;;11.50;99.90;;;;;;5031781;28;20702;-68
2021/04/11 01:01:39;;;;;;;6.80;4.20;;;11.50;99.90;;;;;;5046400;28;20487;-68
2021/04/11 01:04:06;;;;;;;6.53;3.40;;;11.50;99.90;;;;;;5047503;28;20504;-69
2021/04/11 01:06:39;;;;;;;5.20;3.70;;;11.50;99.90;;;;;;5032284;28;20458;-69
2021/04/11 01:09:23;;;;;;;5.13;4.37;;;11.50;99.90;;;;;;5015932;28;20455;-69
2021/04/11 01:11:52;;;;;;;6.37;4.03;;;11.40;99.90;;;;;;5031581;28;21027;-69
2021/04/11 01:14:18;;;;;;;6.17;4.20;;;11.50;99.90;;;;;;5031666;28;20474;-69
2021/04/11 01:16:45;;;;;;;6.07;4.33;;;11.40;99.90;;;;;;5039320;28;20451;-69
2021/04/11 01:19:20;;;;;;;4.43;3.70;;;11.40;99.90;;;;;;5048255;28;20533;-69
2021/04/11 01:22:04;;;;;;;4.20;3.80;;;11.40;99.90;;;;;;5007985;28;20454;-69
2021/04/11 01:24:55;;;;;;;3.97;3.13;;;11.50;99.90;;;;;;5048760;28;20454;-69
2021/04/11 01:27:29;;;;;;;5.30;3.80;;;11.40;99.90;;;;;;5023109;28;20451;-69
2021/04/11 01:29:56;;;;;;;4.03;3.50;;;11.40;99.90;;;;;;5012319;28;20448;-70
2021/04/11 01:32:23;;;;;;;4.27;3.83;;;11.40;99.90;;;;;;5028998;28;20439;-69
2021/04/11 01:34:52;;;;;;;4.00;3.60;;;11.40;99.90;;;;;;5043223;28;20459;-69
2021/04/11 01:37:20;;;;;;;4.70;4.20;;;11.40;99.90;;;;;;5046519;28;20527;-70
2021/04/11 01:39:46;;;;;;;3.80;3.13;;;11.40;99.90;;;;;;5031462;28;20924;-69
2021/04/11 01:42:15;;;;;;;4.50;4.03;;;11.40;99.90;;;;;;5015745;28;20968;-69
2021/04/11 01:44:45;;;;;;;4.23;3.77;;;11.40;99.90;;;;;;5015513;28;20458;-69
2021/04/11 01:47:14;;;;;;;3.80;3.40;;;11.40;99.90;;;;;;5014961;28;20458;-70
2021/04/11 01:49:45;;;;;;;4.40;3.60;;;11.40;99.90;;;;;;5012890;28;20843;-69
2021/04/11 01:52:29;;;;;;;4.47;3.40;;;11.40;99.90;;;;;;5032096;28;20462;-70
2021/04/11 01:54:56;;;;;;;6.80;4.53;;;11.40;99.90;;;;;;5027610;28;20871;-69
2021/04/11 01:57:28;;;;;;;5.73;4.87;;;11.40;99.90;;;;;;5045898;28;20455;-70
2021/04/11 02:00:10;;;;;;;5.40;4.10;;;11.40;99.90;;;;;;5032953;28;20460;-69
2021/04/11 02:02:39;;;;;;;5.07;4.27;;;11.30;99.90;;;;;;5047897;28;20473;-69
2021/04/11 02:05:13;;;;;;;5.37;4.60;;;11.30;99.90;;;;;;5048113;28;21005;-69
2021/04/11 02:07:40;;;;;;;5.27;4.30;;;11.30;99.90;;;;;;5048568;28;20523;-69
2021/04/11 02:10:07;;;;;;;6.03;5.00;;;11.30;99.90;;;;;;5048078;28;20451;-69
2021/04/11 02:12:38;;;;;;;6.17;5.03;;;11.30;99.90;;;;;;5016036;28;20987;-69
2021/04/11 02:15:18;;;;;;;5.10;4.60;;;11.30;99.90;;;;;;5002685;28;20869;-69
2021/04/11 02:17:46;;;;;;;6.90;4.90;;;11.30;99.90;;;;;;5047492;28;20457;-69
2021/04/11 02:20:12;;;;;;;6.70;4.90;;;11.30;99.90;;;;;;5015176;28;20548;-70
2021/04/11 02:22:44;;;;;;;5.80;5.03;;;11.30;99.90;;;;;;5047974;28;20848;-69
2021/04/11 02:25:15;;;;;;;9.27;5.90;;;11.30;99.90;;;;;;5031813;28;20465;-70
2021/04/11 02:27:43;;;;;;;7.03;6.33;;;11.30;99.90;;;;;;5036272;28;20831;-69
2021/04/11 02:30:13;;;;;;;8.67;6.50;;;11.20;99.90;;;;;;5035315;28;20455;-70
2021/04/11 02:32:39;;;;;;;7.33;6.50;;;11.20;99.90;;;;;;5052516;28;20474;-69
2021/04/11 02:35:08;;;;;;;7.33;5.93;;;11.20;99.90;;;;;;5052419;28;20474;-69
2021/04/11 02:37:36;;;;;;;8.43;7.00;;;11.20;99.90;;;;;;5052420;28;20478;-70
2021/04/11 02:40:07;;;;;;;12.83;7.20;;;11.20;99.90;;;;;;5015921;28;20530;-69
2021/04/11 02:42:35;;;;;;;9.90;6.70;;;11.20;99.90;;;;;;5032711;28;21169;-68
2021/04/11 02:45:06;;;;;;;7.37;6.07;;;11.20;99.90;;;;;;5032222;28;20451;-69
2021/04/11 02:47:38;;;;;;;12.07;7.60;;;11.20;99.90;;;;;;5035870;28;20525;-68
2021/04/11 02:50:07;;;;;;;9.20;6.83;;;11.20;99.90;;;;;;5030185;28;20477;-69
2021/04/11 02:52:39;;;;;;;9.43;5.90;;;11.20;99.90;;;;;;5017432;28;20462;-68
2021/04/11 02:55:09;;;;;;;7.47;5.50;;;11.20;99.90;;;;;;5035470;28;20997;-70
2021/04/11 02:57:36;;;;;;;7.90;6.30;;;11.20;99.90;;;;;;5052455;28;20509;-69
2021/04/11 03:00:08;;;;;;;7.83;5.83;;;11.20;99.90;;;;;;5018964;28;20486;-68
2021/04/11 03:02:37;;;;;;;7.40;5.17;;;11.20;99.90;;;;;;5036209;28;20442;-69
2021/04/11 03:05:07;;;;;;;6.67;5.40;;;11.20;99.90;;;;;;5035893;28;20497;-68
2021/04/11 03:07:51;;;;;;;6.60;5.53;;;11.20;99.90;;;;;;5052064;28;20450;-68
2021/04/11 03:10:45;;;;;;;7.20;5.40;;;11.20;99.90;;;;;;5034469;28;20450;-69
2021/04/11 03:13:14;;;;;;;8.07;5.43;;;11.20;99.90;;;;;;5031146;28;20466;-68
2021/04/11 03:15:42;;;;;;;6.00;5.10;;;11.10;99.90;;;;;;5037716;28;20470;-68
2021/04/11 03:18:09;;;;;;;10.10;5.73;;;11.10;99.90;;;;;;5012461;28;20551;-68
2021/04/11 03:20:39;;;;;;;6.97;5.50;;;11.10;99.90;;;;;;5034414;28;20827;-70
2021/04/11 03:23:13;;;;;;;7.93;5.43;;;11.10;99.90;;;;;;5035468;28;20459;-67
2021/04/11 03:25:41;;;;;;;8.17;6.00;;;11.10;99.90;;;;;;5018582;28;20454;-68
2021/04/11 03:28:22;;;;;;;5.53;4.97;;;11.10;99.90;;;;;;5051334;28;20458;-68
2021/04/11 03:31:04;;;;;;;7.00;5.63;;;11.00;99.90;;;;;;5035894;28;21058;-68
2021/04/11 03:33:39;;;;;;;7.80;7.00;;;11.00;99.90;;;;;;5052316;28;20465;-68
2021/04/11 03:36:10;;;;;;;10.07;6.13;;;11.00;99.90;;;;;;5030268;28;20527;-68
2021/04/11 03:38:37;;;;;;;10.00;6.17;;;11.00;99.90;;;;;;5034586;28;20457;-68
2021/04/11 03:41:04;;;;;;;7.33;5.77;;;11.10;99.90;;;;;;5020620;28;20474;-68
2021/04/11 03:43:51;;;;;;;8.30;6.33;;;11.00;99.90;;;;;;5043091;28;20512;-68
2021/04/11 03:46:34;;;;;;;9.70;6.17;;;11.10;99.90;;;;;;5044261;28;20973;-67
2021/04/11 03:49:25;;;;;;;8.30;7.23;;;11.00;99.90;;;;;;5050653;28;20485;-68
2021/04/11 03:51:54;;;;;;;10.50;7.43;;;11.00;99.90;;;;;;5051542;28;20839;-68
2021/04/11 03:54:26;;;;;;;8.97;7.03;;;11.00;99.90;;;;;;5050352;28;20458;-68
2021/04/11 03:57:07;;;;;;;9.27;7.63;;;11.00;99.90;;;;;;5043838;28;20450;-68
2021/04/11 03:59:48;;;;;;;9.70;7.17;;;11.00;99.90;;;;;;5067339;28;20458;-68
2021/04/11 04:02:17;;;;;;;8.37;6.70;;;11.00;99.90;;;;;;5050742;28;20463;-68
2021/04/11 04:04:45;;;;;;;10.77;7.67;;;11.10;99.90;;;;;;5034559;28;20458;-68
2021/04/11 04:07:12;;;;;;;13.97;8.13;;;11.00;99.90;;;;;;5034003;28;20550;-67
2021/04/11 04:09:42;;;;;;;11.70;8.07;;;11.00;99.90;;;;;;5034491;28;20966;-68
2021/04/11 04:12:12;;;;;;;10.97;7.73;;;11.00;99.90;;;;;;5050731;28;20450;-68
2021/04/11 04:14:52;;;;;;;8.77;7.00;;;11.00;99.90;;;;;;5033593;28;20459;-69
2021/04/11 04:17:46;;;;;;;11.70;7.90;;;11.00;99.90;;;;;;5050322;28;20482;-68
2021/04/11 04:20:37;;;;;;;8.23;7.40;;;11.00;99.90;;;;;;5036603;28;20447;-68
2021/04/11 04:23:56;;;;;;;11.57;7.77;;;11.00;99.90;;;;;;5039512;28;20528;-69
2021/04/11 04:26:50;;;;;;;9.57;7.10;;;11.00;99.90;;;;;;5048908;28;20794;-68
2021/04/11 04:29:51;;;;;;;8.77;7.03;;;11.00;99.90;;;;;;5035553;28;20470;-68
2021/04/11 04:32:57;;;;;;;10.53;7.47;;;11.00;99.90;;;;;;5028980;28;20508;-68
2021/04/11 04:35:48;;;;;;;8.97;7.33;;;11.00;99.90;;;;;;5029519;28;20459;-68
2021/04/11 04:38:26;;;;;;;8.63;6.90;;;11.00;99.90;;;;;;5050115;28;21057;-68
2021/04/11 04:41:16;;;;;;;8.20;6.63;;;11.00;99.90;;;;;;5033340;28;20457;-68
2021/04/11 04:44:18;;;;;;;8.07;6.40;;;11.00;99.90;;;;;;5030037;28;20463;-68
2021/04/11 04:47:05;;;;;;;8.13;7.20;;;11.00;99.90;;;;;;5029885;28;20451;-68
2021/04/11 04:50:00;;;;;;;10.00;6.93;;;10.90;99.90;;;;;;5030549;28;20459;-68
2021/04/11 04:52:31;;;;;;;10.30;7.60;;;10.80;99.90;;;;;;5041436;28;20456;-68
2021/04/11 04:55:08;;;;;;;10.80;7.50;;;10.80;99.90;;;;;;5033673;28;20466;-68
2021/04/11 04:57:58;;;;;;;12.80;7.60;;;10.80;99.90;;;;;;5042442;28;20447;-68
2021/04/11 05:00:30;;;;;;;9.90;7.40;;;10.70;99.90;;;;;;5048551;28;20867;-68
2021/04/11 05:03:21;;;;;;;10.23;7.13;;;10.80;99.90;;;;;;5049354;28;20551;-68
2021/04/11 05:06:18;;;;;;;10.60;8.07;;;10.80;99.90;;;;;;5034599;28;20478;-68
2021/04/11 05:09:03;;;;;;;9.00;6.80;;;10.70;99.90;;;;;;5026956;28;20821;-69
2021/04/11 05:11:45;;;;;;;14.83;8.93;;;10.70;99.90;;;;;;5046812;28;20474;-68
2021/04/11 05:14:20;;;;;;;9.07;7.97;;;10.60;99.90;;;;;;5040939;28;20467;-68
2021/04/11 05:17:00;;;;;;;10.00;7.50;;;10.60;99.90;;;;;;5032995;28;20447;-69
2021/04/11 05:19:36;;;;;;;9.63;6.87;;;10.70;99.90;;;;;;5045956;28;20503;-68
2021/04/11 05:22:54;;;;;;;10.97;7.60;;;10.70;99.90;;;;;;5030050;28;20447;-69
2021/04/11 05:25:35;;;;;;;11.87;7.90;;;10.70;99.90;;;;;;5033073;28;20784;-68
2021/04/11 05:28:08;;;;;;;12.53;6.97;;;10.70;99.90;;;;;;5032312;28;20859;-68
2021/04/11 05:30:48;;;;;;;9.37;7.13;;;10.70;99.90;;;;;;5016517;28;20496;-68
2021/04/11 05:33:19;;;;;;;7.83;7.03;;;10.70;99.90;;;;;;5046843;28;20965;-68
2021/04/11 05:35:47;;;;;;;8.40;6.40;;;10.80;99.90;;;;;;5015092;28;20520;-69
2021/04/11 05:38:51;;;;;;;9.60;6.67;;;10.70;99.90;;;;;;5029203;28;20543;-68
2021/04/11 05:41:25;;;;;;;8.83;6.60;;;10.70;99.90;;;;;;5013633;28;20451;-69
2021/04/11 05:44:08;;;;;;;8.13;6.30;;;10.70;99.90;;;;;;5041182;28;20486;-69
2021/04/11 05:46:43;;;;;;;8.00;6.60;;;10.70;99.90;;;;;;5047921;28;20457;-70
2021/04/11 05:49:33;;;;;;;7.83;6.13;;;10.70;99.90;;;;;;5049263;28;21046;-69
2021/04/11 05:52:12;;;;;;;7.77;6.60;;;10.70;99.90;;;;;;5042321;28;20475;-69
2021/04/11 05:54:42;;;;;;;8.37;6.80;;;10.70;99.90;;;;;;5042026;28;20847;-69
2021/04/11 05:57:18;;;;;;;8.33;5.90;;;10.70;99.90;;;;;;5048536;28;20454;-69
2021/04/11 05:59:51;;;;;;;7.80;6.30;;;10.70;99.90;;;;;;5048525;28;20457;-69
2021/04/11 06:02:46;;;;;;;6.73;5.00;;;10.70;99.90;;;;;;5031489;28;20541;-70
2021/04/11 06:05:40;;;;;;;9.70;7.30;;;10.70;99.90;;;;;;5035386;28;20455;-69
2021/04/11 06:08:23;;;;;;;9.97;8.03;;;10.80;99.90;;;;;;5047997;28;20549;-69
2021/04/11 06:11:00;;;;;;;8.47;6.97;;;10.80;99.90;;;;;;5032076;28;20462;-69
2021/04/11 06:13:40;;;;;;;8.33;6.10;;;10.80;99.90;;;;;;5031403;28;20491;-69
2021/04/11 06:16:12;;;;;;;7.13;6.43;;;10.80;99.90;;;;;;5048453;28;20545;-68
2021/04/11 06:18:47;;;;;;;6.27;4.40;;;10.80;99.90;;;;;;5043089;28;20908;-69
2021/04/11 06:21:53;;;;;;;4.53;4.13;;;10.80;99.90;;;;;;5047218;28;20836;-68
2021/04/11 06:24:24;;;;;;;4.23;3.87;;;10.80;99.90;;;;;;5045934;28;20458;-69
2021/04/11 06:27:17;;;;;;;14.47;11.50;;;10.70;99.90;;;;;;5047804;28;20826;-68
2021/04/11 06:30:01;;;;;;;16.60;12.70;;;10.70;99.90;;;;;;5046665;28;20458;-68
2021/04/11 06:32:34;;;;;;;14.83;8.33;;;10.80;99.90;;;;;;5031118;28;20453;-69
2021/04/11 06:35:04;;;;;;;10.80;8.17;;;10.80;99.90;;;;;;5048329;28;20670;-68
2021/04/11 06:37:32;;;;;;;10.57;6.60;;;10.80;99.90;;;;;;5048375;28;20885;-68
2021/04/11 06:40:01;;;;;;;7.47;6.47;;;10.80;99.90;;;;;;5031182;28;20463;-69
2021/04/11 06:43:12;;;;;;;5.10;4.50;;;10.80;99.90;;;;;;5012919;28;20446;-69
2021/04/11 06:45:55;;;;;;;4.10;3.70;;;10.90;99.90;;;;;;4952613;28;20895;-71
2021/04/11 06:48:41;;;;;;;3.83;3.50;;;10.90;99.90;;;;;;4951059;28;20465;-69
2021/04/11 06:51:19;;;;;;;5.77;4.37;;;10.90;99.90;;;;;;5029786;28;20464;-68
2021/04/11 06:57:29;;;;;;;5.73;4.80;;;11.00;99.90;;;;;;5041610;28;20450;-68
2021/04/11 07:00:37;;;;;;;7.60;5.57;;;11.10;99.90;;;;;;5049316;28;20965;-68
2021/04/11 07:03:36;;;;;;;4.77;4.23;;;11.20;99.90;;;;;;5046805;28;20450;-69
2021/04/11 07:06:43;;;;;;;8.27;6.13;;;11.30;99.90;;;;;;5041187;28;20593;-69
2021/04/11 07:09:27;;;;;;;9.90;6.90;;;11.40;99.90;;;;;;4934429;28;20843;-68
2021/04/11 07:12:20;;;;;;;11.87;7.30;;;11.40;99.90;;;;;;4968095;28;20845;-68
2021/04/11 07:14:57;;;;;;;15.10;7.70;;;11.50;99.90;;;;;;5020981;28;20467;-68
2021/04/11 07:17:59;;;;;;;9.47;6.07;;;11.50;99.90;;;;;;5050036;28;21018;-68
2021/04/11 07:21:09;;;;;;;10.37;6.67;;;11.50;99.90;;;;;;5034167;28;20446;-69
2021/04/11 07:24:03;;;;;;;8.83;6.63;;;11.60;99.90;;;;;;5040843;28;20511;-69
2021/04/11 07:26:50;;;;;;;7.97;4.97;;;11.60;99.90;;;;;;5034605;28;20537;-69
2021/04/11 07:29:51;;;;;;;7.27;4.87;;;11.70;99.90;;;;;;5029328;28;21003;-68
2021/04/11 07:32:45;;;;;;;7.07;4.90;;;11.80;99.90;;;;;;4976197;28;21197;-69
2021/04/11 07:35:56;;;;;;;3.87;3.53;;;11.80;99.90;;;;;;5039921;28;20534;-69
2021/04/11 07:39:06;;;;;;;3.50;3.13;;;12.00;99.90;;;;;;4999146;28;20450;-69
2021/04/11 07:41:48;;;;;;;4.83;3.30;;;12.10;99.90;;;;;;5035306;28;20451;-68
2021/04/11 07:44:33;;;;;;;4.00;3.10;;;12.10;99.90;;;;;;5049883;28;20454;-69
2021/04/11 07:47:13;;;;;;;4.43;3.83;;;12.20;99.90;;;;;;5030499;28;20452;-68
2021/04/11 07:50:08;;;;;;;3.20;2.90;;;12.30;99.90;;;;;;5022680;28;20469;-69
2021/04/11 07:52:49;;;;;;;3.37;3.07;;;12.40;99.90;;;;;;5028372;28;20513;-70
2021/04/11 07:55:18;;;;;;;2.97;2.50;;;12.50;99.90;;;;;;5046439;28;20986;-69
2021/04/11 07:57:54;;;;;;;5.50;2.90;;;12.60;99.90;;;;;;5050386;28;20800;-68
2021/04/11 08:07:59;;;;;;;2.23;2.07;;;12.80;99.90;;;;;;5051558;28;20478;-68
2021/04/11 08:10:40;;;;;;;3.83;2.80;;;13.00;99.90;;;;;;5048995;28;20438;-69
2021/04/11 08:13:22;;;;;;;2.10;2.00;;;13.10;99.90;;;;;;5050024;28;21011;-69
2021/04/11 08:16:40;;;;;;;2.77;2.30;;;13.20;99.90;;;;;;5049061;28;20474;-68
2021/04/11 08:19:57;;;;;;;3.23;2.90;;;13.30;99.90;;;;;;5029052;28;20458;-68
2021/04/11 08:22:23;;;;;;;3.00;2.70;;;13.50;99.90;;;;;;5051023;28;20454;-69
2021/04/11 08:25:16;;;;;;;2.83;2.17;;;13.70;99.90;;;;;;5024523;28;20881;-69
2021/04/11 08:27:50;;;;;;;2.30;2.10;;;13.90;99.90;;;;;;5031738;28;20689;-69
2021/04/11 08:30:53;;;;;;;2.63;2.40;;;14.10;99.90;;;;;;5061101;28;20514;-71
2021/04/11 08:33:37;;;;;;;19.20;12.20;;;14.10;99.90;;;;;;5029294;28;20490;-69
2021/04/11 08:36:22;;;;;;;8.73;6.80;;;14.20;99.90;;;;;;5030948;28;20548;-69
2021/04/11 08:39:25;;;;;;;3.13;2.83;;;14.20;99.90;;;;;;5030199;28;20455;-72
2021/04/11 08:42:22;;;;;;;2.83;2.47;;;14.20;99.90;;;;;;5035231;28;20458;-69
2021/04/11 08:45:14;;;;;;;4.33;3.17;;;14.20;99.90;;;;;;5041761;28;20466;-68
2021/04/11 08:48:15;;;;;;;6.90;4.80;;;14.20;99.90;;;;;;5049462;28;20454;-71
2021/04/11 08:50:50;;;;;;;4.73;4.33;;;14.20;99.90;;;;;;4936510;28;20512;-69
2021/04/11 08:53:37;;;;;;;5.03;3.10;;;14.20;99.90;;;;;;5039225;28;20458;-69
2021/04/11 08:56:25;;;;;;;5.60;4.80;;;14.20;99.90;;;;;;5032414;28;20478;-69
2021/04/11 08:59:40;;;;;;;4.83;3.10;;;14.20;99.90;;;;;;5048027;28;20465;-70
2021/04/11 09:02:45;;;;;;;2.90;2.70;;;14.20;99.90;;;;;;5048577;28;20454;-68
2021/04/11 09:05:31;;;;;;;4.63;4.20;;;14.20;99.90;;;;;;5049088;28;20517;-70
2021/04/11 09:08:30;;;;;;;4.73;4.00;;;14.30;99.90;;;;;;5029078;28;20457;-69
2021/04/11 09:11:18;;;;;;;3.13;2.93;;;14.30;99.90;;;;;;5027004;28;20466;-69
2021/04/11 09:14:21;;;;;;;2.83;2.60;;;14.30;99.90;;;;;;5049234;28;20488;-69
2021/04/11 09:17:17;;;;;;;3.47;3.17;;;14.40;99.90;;;;;;5025505;28;20860;-70
2021/04/11 09:20:04;;;;;;;4.33;3.30;;;14.50;99.90;;;;;;5045011;28;20531;-68
2021/04/11 09:22:50;;;;;;;3.70;3.40;;;14.50;99.90;;;;;;5026498;28;20857;-69
2021/04/11 09:25:26;;;;;;;2.63;2.43;;;14.50;99.90;;;;;;5033954;28;20455;-71
2021/04/11 09:28:07;;;;;;;2.40;2.20;;;14.50;99.90;;;;;;5026334;28;21027;-69
2021/04/11 09:31:00;;;;;;;2.13;1.93;;;14.60;99.90;;;;;;5024888;28;20442;-69
2021/04/11 09:33:48;;;;;;;3.57;2.37;;;14.60;99.90;;;;;;5021851;28;20512;-68
2021/04/11 09:36:26;;;;;;;5.33;2.23;;;14.70;99.90;;;;;;5025428;28;20492;-69
2021/04/11 09:39:16;;;;;;;4.67;3.30;;;14.70;99.90;;;;;;5036208;28;20451;-68
2021/04/11 09:42:19;;;;;;;3.60;2.97;;;14.70;99.90;;;;;;5041671;28;20453;-70
2021/04/11 09:45:22;;;;;;;3.60;2.77;;;14.80;99.90;;;;;;5043864;28;20456;-69
2021/04/11 09:47:48;;;;;;;2.83;2.63;;;14.80;99.90;;;;;;5029474;28;20482;-69
2021/04/11 09:50:55;;;;;;;3.30;2.33;;;14.70;99.90;;;;;;5044308;28;20545;-70
2021/04/11 09:53:50;;;;;;;5.20;2.60;;;14.70;99.90;;;;;;5001923;28;20212;-69
2021/04/11 09:56:30;;;;;;;2.70;2.17;;;14.70;99.90;;;;;;5038450;28;20478;-69
2021/04/11 09:59:09;;;;;;;2.50;2.30;;;14.60;99.90;;;;;;5039336;28;20517;-68
2021/04/11 10:01:53;;;;;;;2.30;2.10;;;14.60;99.90;;;;;;5037983;28;20466;-70
2021/04/11 10:04:47;;;;;;;4.73;2.50;;;14.50;99.90;;;;;;5039103;28;20481;-68
2021/04/11 10:07:40;;;;;;;2.30;2.10;;;14.50;99.90;;;;;;5026470;28;20508;-68
2021/04/11 10:10:15;;;;;;;2.77;2.50;;;14.40;99.90;;;;;;5039307;28;20517;-69
2021/04/11 10:12:56;;;;;;;2.70;2.50;;;14.30;99.90;;;;;;5040877;28;20473;-68
2021/04/11 10:15:52;;;;;;;2.93;2.63;;;14.30;99.90;;;;;;5019249;28;20471;-70
2021/04/11 10:18:48;;;;;;;3.63;2.23;;;14.20;99.90;;;;;;5024446;28;20486;-69
2021/04/11 10:21:30;;;;;;;2.00;1.53;;;14.10;99.90;;;;;;5025562;28;20458;-69
2021/04/11 10:24:08;;;;;;;2.83;2.17;;;14.10;99.90;;;;;;5037671;28;20471;-70
2021/04/11 10:26:38;;;;;;;2.53;2.33;;;14.10;99.90;;;;;;5047949;28;20538;-69
2021/04/11 10:29:17;;;;;;;4.33;1.80;;;14.00;99.90;;;;;;5051946;28;20458;-70
2021/04/11 10:31:54;;;;;;;4.17;3.67;;;14.00;99.90;;;;;;5021836;28;20451;-71
2021/04/11 10:34:33;;;;;;;2.70;2.50;;;14.00;99.90;;;;;;5029765;28;20496;-71
2021/04/11 10:37:36;;;;;;;2.77;2.57;;;14.00;99.90;;;;;;5032858;28;20464;-70
2021/04/11 10:40:01;;;;;;;2.87;2.67;;;13.90;99.90;;;;;;5055147;28;20447;-69
2021/04/11 10:42:58;;;;;;;2.70;2.50;;;13.90;99.90;;;;;;5046537;28;20512;-69
2021/04/11 10:45:39;;;;;;;3.07;2.70;;;13.90;99.90;;;;;;5045333;28;20223;-70
2021/04/11 10:48:28;;;;;;;3.07;2.43;;;13.90;99.90;;;;;;5044343;28;20446;-68
2021/04/11 10:51:18;;;;;;;2.47;2.27;;;13.90;99.90;;;;;;5015248;28;20462;-69
2021/04/11 10:54:02;;;;;;;3.27;2.87;;;14.00;99.90;;;;;;5025747;28;20457;-68
2021/04/11 10:57:05;;;;;;;3.10;2.80;;;13.90;99.90;;;;;;5050724;28;20476;-68
2021/04/11 10:59:34;;;;;;;2.90;2.70;;;13.80;99.90;;;;;;5050833;28;21030;-69
2021/04/11 11:02:32;;;;;;;2.90;2.70;;;13.70;99.90;;;;;;5030172;28;20970;-68
2021/04/11 11:05:36;;;;;;;3.47;3.00;;;13.60;99.90;;;;;;5043401;28;21013;-69
2021/04/11 11:08:33;;;;;;;2.90;2.60;;;13.60;99.90;;;;;;5050316;28;20492;-69
2021/04/11 11:11:22;;;;;;;2.20;1.97;;;13.60;99.90;;;;;;5049842;28;20443;-69
2021/04/11 11:14:38;;;;;;;4.23;2.53;;;13.50;99.90;;;;;;5050554;28;20482;-70
2021/04/11 11:17:13;;;;;;;2.67;1.93;;;13.40;99.90;;;;;;5016629;28;20456;-68
2021/04/11 11:19:50;;;;;;;2.20;1.87;;;13.40;99.90;;;;;;5032329;28;20924;-70
2021/04/11 11:22:47;;;;;;;2.43;2.23;;;13.40;99.90;;;;;;5051015;28;20449;-68
2021/04/11 11:25:21;;;;;;;4.17;2.23;;;13.40;99.90;;;;;;5049523;28;20442;-68
2021/04/11 11:27:53;;;;;;;2.40;2.20;;;13.40;99.90;;;;;;5048430;28;20460;-68
2021/04/11 11:30:47;;;;;;;2.90;2.70;;;13.50;99.90;;;;;;5040563;28;20878;-69
2021/04/11 11:33:38;;;;;;;2.80;2.60;;;13.40;99.90;;;;;;5029077;28;20462;-68
2021/04/11 11:36:10;;;;;;;2.80;2.43;;;13.30;99.90;;;;;;5024395;28;20471;-68
2021/04/11 11:38:45;;;;;;;4.67;3.60;;;13.30;99.90;;;;;;5032031;28;21004;-68
2021/04/11 11:41:24;;;;;;;3.17;2.60;;;13.30;99.90;;;;;;5046094;28;20462;-69
2021/04/11 11:44:03;;;;;;;3.90;3.40;;;13.40;99.90;;;;;;5034333;28;20458;-68
2021/04/11 11:46:39;;;;;;;4.23;3.57;;;13.40;99.90;;;;;;5050255;28;20453;-70
2021/04/11 11:49:16;;;;;;;6.83;5.40;;;13.40;99.90;;;;;;5041984;28;20451;-69
2021/04/11 11:52:03;;;;;;;11.70;6.10;;;13.40;99.90;;;;;;5035024;28;20826;-69
2021/04/11 11:54:40;;;;;;;14.13;6.30;;;13.40;99.90;;;;;;5049971;28;20462;-69
2021/04/11 11:57:08;;;;;;;14.90;6.87;;;13.50;99.90;;;;;;5030251;28;20465;-71
2021/04/11 11:59:43;;;;;;;12.97;7.30;;;13.50;99.90;;;;;;5047868;28;20477;-69
2021/04/11 12:02:39;;;;;;;15.07;8.57;;;13.50;99.90;;;;;;5019530;28;20449;-69
2021/04/11 12:05:26;;;;;;;10.00;6.87;;;13.40;99.90;;;;;;5022591;28;20459;-71
2021/04/11 12:08:11;;;;;;;13.17;7.97;;;13.40;99.90;;;;;;5049108;28;20456;-70
2021/04/11 12:11:12;;;;;;;19.00;8.67;;;13.40;99.90;;;;;;5048696;28;20518;-69
2021/04/11 12:14:00;;;;;;;5.73;4.03;;;13.40;99.90;;;;;;4963379;28;20455;-69
2021/04/11 12:16:47;;;;;;;1.37;1.27;;;13.40;99.90;;;;;;5031737;28;21308;-69
2021/04/11 12:19:30;;;;;;;1.13;1.03;;;13.10;99.90;;;;;;5016394;28;20553;-69
2021/04/11 12:22:29;;;;;;;0.90;0.90;;;13.00;99.90;;;;;;5044454;28;21071;-69
2021/04/11 12:25:15;;;;;;;1.43;1.33;;;12.90;99.90;;;;;;5034183;28;20446;-69
2021/04/11 12:27:41;;;;;;;0.90;0.90;;;12.90;99.90;;;;;;5028958;28;20460;-70
2021/04/11 12:30:13;;;;;;;0.97;0.97;;;12.80;99.90;;;;;;5028406;28;20450;-69
2021/04/11 12:33:01;;;;;;;0.90;0.90;;;12.70;99.90;;;;;;5031551;28;20447;-70
2021/04/11 12:35:38;;;;;;;0.80;0.70;;;12.60;99.90;;;;;;5049001;28;20799;-69
2021/04/11 12:38:42;;;;;;;0.60;0.60;;;12.50;99.90;;;;;;5031178;28;20545;-69
2021/04/11 12:41:13;;;;;;;0.47;0.47;;;12.40;99.90;;;;;;5036294;28;20461;-69
2021/04/11 12:44:11;;;;;;;0.50;0.47;;;12.40;99.90;;;;;;5048363;28;20466;-69
2021/04/11 12:46:43;;;;;;;1.03;0.70;;;12.30;99.90;;;;;;5045922;28;20885;-69
2021/04/11 12:49:13;;;;;;;0.80;0.80;;;12.30;99.90;;;;;;5037468;28;21050;-69
2021/04/11 12:51:58;;;;;;;0.50;0.50;;;12.30;99.90;;;;;;5042843;28;20869;-69
2021/04/11 12:54:35;;;;;;;0.60;0.57;;;12.20;99.90;;;;;;5044035;28;20454;-71
2021/04/11 12:57:05;;;;;;;0.53;0.53;;;12.00;99.90;;;;;;5011911;28;20449;-69
2021/04/11 12:59:50;;;;;;;0.60;0.40;;;12.00;99.90;;;;;;5029303;28;20461;-70
2021/04/11 13:02:21;;;;;;;1.77;1.67;;;11.90;99.90;;;;;;5041216;28;20473;-69
2021/04/11 13:05:02;;;;;;;1.37;0.80;;;11.90;99.90;;;;;;5043231;28;20511;-71
2021/04/11 13:07:32;;;;;;;1.40;1.27;;;11.80;99.90;;;;;;5043224;28;20477;-71
2021/04/11 13:10:14;;;;;;;3.20;1.67;;;11.80;99.90;;;;;;5005542;28;20467;-71
2021/04/11 13:13:04;;;;;;;1.90;1.43;;;11.80;99.90;;;;;;5041376;28;20472;-70
2021/04/11 13:15:57;;;;;;;1.63;1.50;;;11.60;99.90;;;;;;5025945;28;20462;-69
2021/04/11 13:18:49;;;;;;;3.40;2.73;;;11.50;99.90;;;;;;5025164;28;20450;-71
2021/04/11 13:21:42;;;;;;;2.50;1.93;;;11.50;99.90;;;;;;5018957;28;20454;-71
2021/04/11 13:24:45;;;;;;;0.63;0.63;;;11.40;99.90;;;;;;5026121;28;20907;-69
2021/04/11 13:27:29;;;;;;;0.80;0.80;;;11.30;99.90;;;;;;5008887;28;20818;-70
2021/04/11 13:30:17;;;;;;;0.70;0.70;;;11.20;99.90;;;;;;5018715;28;20455;-70
2021/04/11 13:32:51;;;;;;;0.77;0.77;;;11.10;99.90;;;;;;5040806;28;20462;-71
2021/04/11 13:35:29;;;;;;;0.70;0.70;;;11.10;99.90;;;;;;5039868;28;20490;-70
2021/04/11 13:38:14;;;;;;;0.87;0.87;;;11.00;99.90;;;;;;5041184;28;20472;-71
2021/04/11 13:40:41;;;;;;;0.70;0.70;;;10.80;99.90;;;;;;5039862;28;20447;-69
2021/04/11 13:43:29;;;;;;;1.40;1.10;;;10.70;99.90;;;;;;5047883;28;20487;-68
2021/04/11 13:46:05;;;;;;;1.50;1.20;;;10.60;99.90;;;;;;5056871;28;20496;-69
2021/04/11 13:48:39;;;;;;;0.83;0.77;;;10.50;99.90;;;;;;5029625;28;20485;-68
2021/04/11 13:51:20;;;;;;;1.13;0.77;;;10.40;99.90;;;;;;5026076;28;20549;-71
2021/04/11 13:54:25;;;;;;;0.77;0.77;;;10.30;99.90;;;;;;5019701;28;20450;-72
2021/04/11 13:57:16;;;;;;;1.20;1.10;;;10.20;99.90;;;;;;5026990;28;20548;-70
2021/04/11 13:59:47;;;;;;;0.80;0.80;;;10.10;99.90;;;;;;5047252;28;20443;-70
2021/04/11 14:02:20;;;;;;;0.80;0.80;;;10.00;99.90;;;;;;5045404;28;20969;-70
2021/04/11 14:05:05;;;;;;;0.90;0.90;;;10.00;99.90;;;;;;5044089;28;20605;-70
2021/04/11 14:07:39;;;;;;;0.80;0.80;;;10.00;99.90;;;;;;5031313;28;20446;-70